createdAt,value
2019-05-15T00:02:11.105Z,9.70
2019-05-15T00:04:41.725Z,10.00
2019-05-15T00:07:12.532Z,9.70
2019-05-15T00:09:46.204Z,9.80
2019-05-15T00:12:18.907Z,9.60
2019-05-15T00:14:49.081Z,9.90
2019-05-15T00:17:19.707Z,9.80
2019-05-15T00:19:50.313Z,9.90
2019-05-15T00:22:20.786Z,9.70
2019-05-15T00:24:51.776Z,9.60
2019-05-15T00:27:22.058Z,9.50
2019-05-15T00:29:52.741Z,9.60
2019-05-15T00:32:23.000Z,9.80
2019-05-15T00:34:53.307Z,9.60
2019-05-15T00:37:23.528Z,9.60
2019-05-15T00:39:53.784Z,9.70
2019-05-15T00:42:24.046Z,9.60
2019-05-15T00:44:54.341Z,9.50
2019-05-15T00:47:28.659Z,9.80
2019-05-15T00:49:59.559Z,9.70
2019-05-15T00:52:30.409Z,9.80
2019-05-15T00:55:00.988Z,9.70
2019-05-15T00:57:32.110Z,9.60
2019-05-15T01:00:03.090Z,9.80
2019-05-15T01:02:34.216Z,9.80
2019-05-15T01:05:04.538Z,9.70
2019-05-15T01:07:35.326Z,9.60
2019-05-15T01:10:06.440Z,9.60
2019-05-15T01:12:38.013Z,9.80
2019-05-15T01:15:09.608Z,9.70
2019-05-15T01:17:39.840Z,9.60
2019-05-15T01:20:10.113Z,9.80
2019-05-15T01:22:40.369Z,9.50
2019-05-15T01:25:10.584Z,9.50
2019-05-15T01:27:41.182Z,9.60
2019-05-15T01:30:11.613Z,9.50
2019-05-15T01:32:41.868Z,9.50
2019-05-15T01:35:12.902Z,9.70
2019-05-15T01:37:43.512Z,9.30
2019-05-15T01:40:14.050Z,9.50
2019-05-15T01:42:44.262Z,9.80
2019-05-15T01:45:14.583Z,9.50
2019-05-15T01:47:47.889Z,9.30
2019-05-15T01:50:18.542Z,9.30
2019-05-15T01:52:48.768Z,9.40
2019-05-15T01:55:19.578Z,9.30
2019-05-15T01:57:50.087Z,9.50
2019-05-15T02:00:21.748Z,9.50
2019-05-15T02:02:52.571Z,9.40
2019-05-15T02:05:23.607Z,9.30
2019-05-15T02:07:54.219Z,9.30
2019-05-15T02:10:25.358Z,9.20
2019-05-15T02:12:58.643Z,9.10
2019-05-15T02:15:29.096Z,9.20
2019-05-15T02:18:00.119Z,9.10
2019-05-15T02:20:30.687Z,9.20
2019-05-15T02:23:00.933Z,9.10
2019-05-15T02:25:31.196Z,9.00
2019-05-15T02:28:01.442Z,9.10
2019-05-15T02:30:34.023Z,9.10
2019-05-15T02:33:04.471Z,9.00
2019-05-15T02:35:38.878Z,9.30
2019-05-15T02:38:10.114Z,9.30
2019-05-15T02:40:40.529Z,9.30
2019-05-15T02:43:11.333Z,9.20
2019-05-15T02:45:42.705Z,9.30
2019-05-15T02:48:13.011Z,9.00
2019-05-15T02:50:43.252Z,9.00
2019-05-15T02:53:13.506Z,9.10
2019-05-15T02:55:43.765Z,8.80
2019-05-15T02:58:14.475Z,8.90
2019-05-15T03:00:49.499Z,8.90
2019-05-15T03:03:16.567Z,8.80
2019-05-15T03:05:49.617Z,8.70
2019-05-15T03:08:19.530Z,8.70
2019-05-15T03:10:50.550Z,8.80
2019-05-15T03:13:20.977Z,8.90
2019-05-15T03:15:51.193Z,8.80
2019-05-15T03:18:21.497Z,8.90
2019-05-15T03:20:51.711Z,8.70
2019-05-15T03:23:22.416Z,8.90
2019-05-15T03:25:53.084Z,8.70
2019-05-15T03:28:23.285Z,8.80
2019-05-15T03:33:30.072Z,8.90
2019-05-15T03:36:02.610Z,8.90
2019-05-15T03:38:31.216Z,8.50
2019-05-15T03:41:01.783Z,8.70
2019-05-15T03:43:32.015Z,8.70
2019-05-15T03:46:02.316Z,8.50
2019-05-15T03:48:32.541Z,8.70
2019-05-15T03:51:03.347Z,8.70
2019-05-15T03:53:34.236Z,8.40
2019-05-15T03:56:04.850Z,8.50
2019-05-15T03:58:35.434Z,8.60
2019-05-15T04:01:26.983Z,8.80
2019-05-15T04:03:39.005Z,8.50
2019-05-15T04:06:10.073Z,8.60
2019-05-15T04:08:40.642Z,8.50
2019-05-15T04:11:10.870Z,8.50
2019-05-15T04:13:41.090Z,8.40
2019-05-15T04:16:11.282Z,8.40
2019-05-15T04:18:42.708Z,8.60
2019-05-15T04:21:12.999Z,8.50
2019-05-15T04:23:43.451Z,8.60
2019-05-15T04:26:14.191Z,8.40
2019-05-15T04:28:49.495Z,8.40
2019-05-15T04:31:19.607Z,8.50
2019-05-15T04:33:49.847Z,8.50
2019-05-15T04:36:20.533Z,8.70
2019-05-15T04:38:50.726Z,8.50
2019-05-15T04:41:22.052Z,8.40
2019-05-15T04:43:52.270Z,8.30
2019-05-15T04:46:23.277Z,8.60
2019-05-15T04:48:53.527Z,8.90
2019-05-15T04:51:23.778Z,8.70
2019-05-15T04:53:54.019Z,8.80
2019-05-15T04:56:24.247Z,8.60
2019-05-15T04:58:54.537Z,8.80
2019-05-15T05:01:24.950Z,8.80
2019-05-15T05:03:58.853Z,8.90
2019-05-15T05:06:29.447Z,8.80
2019-05-15T05:08:59.844Z,8.70
2019-05-15T05:11:30.062Z,9.20
2019-05-15T05:14:00.668Z,9.00
2019-05-15T05:16:31.184Z,9.20
2019-05-15T05:19:01.840Z,9.40
2019-05-15T05:21:32.082Z,9.00
2019-05-15T05:24:02.323Z,9.20
2019-05-15T05:26:32.509Z,9.30
2019-05-15T05:29:03.087Z,9.50
2019-05-15T05:31:33.307Z,9.80
2019-05-15T05:34:03.543Z,9.50
2019-05-15T05:36:33.733Z,9.80
2019-05-15T05:39:05.663Z,9.70
2019-05-15T05:41:35.881Z,9.60
2019-05-15T05:44:08.116Z,9.70
2019-05-15T05:46:39.779Z,9.50
2019-05-15T05:49:10.538Z,10.00
2019-05-15T05:51:41.090Z,9.70
2019-05-15T05:54:11.387Z,9.80
2019-05-15T05:56:41.673Z,10.00
2019-05-15T05:59:12.348Z,9.60
2019-05-15T06:01:44.211Z,9.80
2019-05-15T06:04:14.555Z,9.80
2019-05-15T06:06:45.123Z,9.80
2019-05-15T06:09:15.339Z,10.10
2019-05-15T06:11:45.595Z,10.20
2019-05-15T06:14:18.129Z,10.40
2019-05-15T06:16:48.355Z,10.70
2019-05-15T06:19:18.477Z,10.70
2019-05-15T06:21:56.847Z,10.60
2019-05-15T06:24:21.061Z,10.70
2019-05-15T06:26:51.320Z,11.30
2019-05-15T06:29:21.563Z,11.30
2019-05-15T06:31:52.095Z,11.30
2019-05-15T06:34:22.682Z,11.30
2019-05-15T06:36:53.275Z,11.20
2019-05-15T06:39:23.488Z,11.10
2019-05-15T06:41:53.773Z,11.30
2019-05-15T06:44:24.318Z,11.40
2019-05-15T06:46:54.879Z,11.70
2019-05-15T06:49:25.815Z,12.10
2019-05-15T06:51:58.167Z,11.90
2019-05-15T06:54:28.577Z,12.10
2019-05-15T06:56:58.939Z,12.00
2019-05-15T06:59:29.425Z,12.00
2019-05-15T07:01:59.737Z,12.10
2019-05-15T07:04:30.414Z,12.00
2019-05-15T07:07:02.760Z,12.00
2019-05-15T07:09:33.394Z,12.10
2019-05-15T07:12:04.205Z,12.10
2019-05-15T07:14:34.440Z,12.20
2019-05-15T07:17:05.025Z,12.60
2019-05-15T07:19:38.947Z,12.70
2019-05-15T07:22:09.411Z,12.70
2019-05-15T07:24:40.234Z,12.70
2019-05-15T07:27:10.852Z,12.70
2019-05-15T07:29:41.104Z,12.70
2019-05-15T07:32:11.338Z,13.30
2019-05-15T07:34:41.964Z,13.30
2019-05-15T07:37:12.532Z,13.30
2019-05-15T07:39:42.816Z,13.20
2019-05-15T07:42:13.029Z,12.90
2019-05-15T07:44:43.287Z,12.90
2019-05-15T07:47:13.606Z,13.10
2019-05-15T07:49:44.154Z,13.20
2019-05-15T07:52:14.359Z,13.60
2019-05-15T07:54:44.591Z,13.40
2019-05-15T07:57:14.793Z,13.40
2019-05-15T07:59:45.406Z,13.50
2019-05-15T08:02:16.057Z,13.70
2019-05-15T08:04:48.215Z,13.70
2019-05-15T08:07:18.643Z,13.90
2019-05-15T08:09:48.874Z,14.20
2019-05-15T08:12:19.422Z,14.60
2019-05-15T08:14:50.859Z,14.60
2019-05-15T08:17:22.237Z,14.40
2019-05-15T08:19:52.889Z,14.60
2019-05-15T08:22:23.082Z,15.00
2019-05-15T08:24:53.309Z,15.00
2019-05-15T08:27:24.073Z,15.00
2019-05-15T08:29:54.445Z,15.00
2019-05-15T08:32:25.064Z,14.80
2019-05-15T08:34:55.497Z,15.00
2019-05-15T08:37:26.103Z,15.20
2019-05-15T08:39:56.302Z,15.40
2019-05-15T08:42:28.092Z,15.30
2019-05-15T08:44:58.455Z,15.20
2019-05-15T08:47:29.647Z,15.30
2019-05-15T08:50:00.293Z,15.30
2019-05-15T08:52:30.634Z,15.30
2019-05-15T08:55:00.960Z,15.40
2019-05-15T08:57:31.196Z,15.30
2019-05-15T09:00:01.402Z,15.40
2019-05-15T09:02:31.608Z,15.40
2019-05-15T09:05:01.935Z,15.70
2019-05-15T09:07:32.491Z,15.80
2019-05-15T09:10:02.806Z,15.80
2019-05-15T09:12:32.984Z,15.80
2019-05-15T09:15:03.188Z,15.80
2019-05-15T09:17:33.382Z,16.00
2019-05-15T09:20:03.647Z,15.80
2019-05-15T09:22:33.810Z,15.80
2019-05-15T09:25:04.505Z,15.80
2019-05-15T09:27:34.780Z,15.80
2019-05-15T09:30:08.546Z,15.90
2019-05-15T09:32:39.299Z,16.10
2019-05-15T09:35:11.005Z,16.10
2019-05-15T09:37:41.635Z,16.10
2019-05-15T09:40:12.174Z,16.10
2019-05-15T09:42:42.653Z,16.30
2019-05-15T09:45:13.074Z,16.20
2019-05-15T09:47:43.832Z,16.40
2019-05-15T09:50:14.112Z,16.40
2019-05-15T09:52:44.325Z,16.40
2019-05-15T09:55:17.858Z,16.50
2019-05-15T09:57:49.095Z,16.60
2019-05-15T10:00:20.301Z,16.60
2019-05-15T10:02:50.912Z,16.80
2019-05-15T10:05:21.125Z,16.80
2019-05-15T10:07:51.891Z,16.80
2019-05-15T10:10:22.212Z,16.70
2019-05-15T10:12:52.467Z,16.60
2019-05-15T10:15:22.693Z,16.70
2019-05-15T10:17:52.916Z,16.90
2019-05-15T10:20:23.340Z,16.70
2019-05-15T10:22:54.915Z,16.70
2019-05-15T10:25:25.219Z,17.00
2019-05-15T10:27:57.841Z,16.90
2019-05-15T10:30:28.407Z,16.90
2019-05-15T10:32:58.654Z,17.10
2019-05-15T10:35:31.691Z,17.20
2019-05-15T10:38:00.759Z,17.10
2019-05-15T10:40:33.145Z,16.90
2019-05-15T10:43:05.256Z,17.10
2019-05-15T10:45:35.457Z,17.10
2019-05-15T10:48:05.709Z,16.80
2019-05-15T10:50:38.597Z,16.80
2019-05-15T10:53:11.011Z,16.90
2019-05-15T10:55:40.441Z,16.90
2019-05-15T10:58:14.038Z,16.90
2019-05-15T11:00:42.493Z,16.70
2019-05-15T11:03:12.729Z,16.60
2019-05-15T11:05:45.762Z,16.70
2019-05-15T11:08:14.919Z,17.00
2019-05-15T11:10:45.605Z,17.00
2019-05-15T11:13:18.399Z,16.90
2019-05-15T11:15:49.171Z,16.90
2019-05-15T11:18:19.954Z,17.00
2019-05-15T11:20:50.513Z,16.90
2019-05-15T11:23:20.797Z,17.20
2019-05-15T11:25:51.756Z,17.30
2019-05-15T11:28:22.342Z,17.20
2019-05-15T11:30:52.604Z,17.30
2019-05-15T11:33:23.165Z,17.60
2019-05-15T11:36:00.513Z,17.70
2019-05-15T11:38:25.273Z,17.70
2019-05-15T11:40:55.510Z,17.50
2019-05-15T11:43:28.922Z,17.50
2019-05-15T11:45:58.955Z,17.30
2019-05-15T11:48:30.156Z,17.40
2019-05-15T11:51:00.439Z,17.30
2019-05-15T11:53:30.726Z,17.40
2019-05-15T11:56:02.724Z,17.20
2019-05-15T11:58:33.246Z,17.30
2019-05-15T12:01:03.726Z,17.40
2019-05-15T12:03:34.012Z,17.60
2019-05-15T12:06:15.906Z,17.60
2019-05-15T12:08:38.400Z,17.50
2019-05-15T12:11:11.906Z,17.30
2019-05-15T12:13:40.681Z,17.40
2019-05-15T12:16:11.008Z,17.30
2019-05-15T12:18:42.442Z,17.30
2019-05-15T12:21:12.721Z,17.40
2019-05-15T12:23:43.215Z,17.30
2019-05-15T12:26:13.968Z,17.30
2019-05-15T12:28:44.720Z,17.20
2019-05-15T12:31:15.051Z,17.10
2019-05-15T12:33:49.399Z,17.20
2019-05-15T12:36:45.940Z,17.20
2019-05-15T12:38:51.978Z,17.20
2019-05-15T13:01:39.758Z,17.50
2019-05-15T13:04:10.247Z,17.50
2019-05-15T13:06:49.523Z,17.40
2019-05-15T13:09:13.470Z,17.70
2019-05-15T13:11:43.858Z,17.60
2019-05-15T13:14:14.112Z,17.70
2019-05-15T13:16:44.389Z,17.60
2019-05-15T13:19:14.984Z,17.70
2019-05-15T13:21:45.466Z,17.80
2019-05-15T13:24:15.727Z,17.80
2019-05-15T13:26:48.263Z,17.80
2019-05-15T13:29:20.386Z,17.80
2019-05-15T13:31:50.740Z,17.80
2019-05-15T13:34:21.009Z,17.80
2019-05-15T13:36:51.193Z,17.70
2019-05-15T13:39:21.512Z,17.70
2019-05-15T13:41:51.837Z,17.60
2019-05-15T13:44:22.174Z,17.60
2019-05-15T13:46:54.762Z,17.60
2019-05-15T13:49:25.035Z,17.70
2019-05-15T13:51:59.307Z,17.60
2019-05-15T13:54:29.954Z,17.80
2019-05-15T13:57:00.568Z,17.80
2019-05-15T13:59:30.924Z,17.70
2019-05-15T14:02:01.210Z,17.60
2019-05-15T14:04:35.255Z,17.60
2019-05-15T14:07:08.366Z,17.80
2019-05-15T14:09:44.277Z,17.80
2019-05-15T14:12:12.246Z,17.80
2019-05-15T14:14:42.455Z,17.90
2019-05-15T14:17:12.707Z,17.80
2019-05-15T14:19:43.450Z,17.80
2019-05-15T14:22:14.781Z,17.70
2019-05-15T14:24:45.378Z,18.00
2019-05-15T14:27:15.621Z,17.70
2019-05-15T14:29:48.881Z,17.70
2019-05-15T14:32:33.977Z,17.70
2019-05-15T14:34:51.313Z,17.60
2019-05-15T14:37:24.411Z,17.40
2019-05-15T14:39:54.679Z,17.30
2019-05-15T14:42:25.021Z,17.40
2019-05-15T14:44:55.572Z,17.50
2019-05-15T14:47:26.404Z,17.40
2019-05-15T14:49:58.452Z,17.40
2019-05-15T14:52:30.026Z,17.30
2019-05-15T14:55:00.629Z,17.30
2019-05-15T14:57:31.263Z,17.30
2019-05-15T15:00:01.616Z,17.40
2019-05-15T15:02:31.937Z,17.40
2019-05-15T15:05:03.038Z,17.40
2019-05-15T15:07:33.549Z,17.30
2019-05-15T15:10:04.055Z,17.20
2019-05-15T15:12:34.596Z,17.20
2019-05-15T15:15:09.038Z,17.00
2019-05-15T15:17:38.912Z,17.00
2019-05-15T15:20:09.527Z,17.10
2019-05-15T15:22:40.496Z,17.20
2019-05-15T15:25:11.277Z,17.10
2019-05-15T15:27:41.569Z,17.10
2019-05-15T15:30:12.175Z,17.10
2019-05-15T15:32:42.409Z,17.10
2019-05-15T15:35:13.784Z,17.10
2019-05-15T15:37:44.500Z,17.10
2019-05-15T15:40:14.842Z,17.00
2019-05-15T15:42:45.136Z,17.10
2019-05-15T15:45:19.129Z,17.10
2019-05-15T15:47:48.836Z,17.10
2019-05-15T15:50:19.409Z,17.20
2019-05-15T15:52:50.043Z,17.10
2019-05-15T15:55:20.675Z,17.00
2019-05-15T15:57:50.990Z,16.90
2019-05-15T16:00:25.659Z,16.80
2019-05-15T16:02:56.247Z,17.00
2019-05-15T16:05:28.942Z,17.20
2019-05-15T16:07:59.226Z,17.10
2019-05-15T16:10:29.791Z,17.00
2019-05-15T16:13:00.435Z,16.90
2019-05-15T16:15:30.688Z,16.80
2019-05-15T16:18:01.253Z,16.70
2019-05-15T16:20:31.937Z,16.60
2019-05-15T16:23:03.027Z,16.80
2019-05-15T16:25:33.720Z,16.60
2019-05-15T16:28:04.327Z,16.60
2019-05-15T16:30:48.177Z,16.60
2019-05-15T16:33:09.427Z,16.60
2019-05-15T16:35:38.766Z,16.60
2019-05-15T16:38:09.454Z,16.60
2019-05-15T16:40:40.279Z,16.40
2019-05-15T16:43:10.874Z,16.40
2019-05-15T16:45:41.563Z,16.40
2019-05-15T16:48:12.104Z,16.70
2019-05-15T16:50:42.345Z,16.60
2019-05-15T16:53:12.638Z,16.50
2019-05-15T16:55:43.136Z,16.70
2019-05-15T16:58:13.944Z,16.70
2019-05-15T17:00:44.666Z,16.50
2019-05-15T17:03:18.234Z,16.30
2019-05-15T17:05:48.954Z,16.20
2019-05-15T17:08:19.779Z,16.20
2019-05-15T17:10:49.968Z,16.20
2019-05-15T17:13:20.764Z,16.20
2019-05-15T17:15:50.940Z,16.30
2019-05-15T17:18:21.460Z,16.40
2019-05-15T17:20:52.137Z,16.30
2019-05-15T17:23:23.367Z,16.10
2019-05-15T17:25:54.686Z,15.90
2019-05-15T17:28:25.244Z,15.80
2019-05-15T17:30:58.202Z,15.70
2019-05-15T17:33:28.875Z,15.70
2019-05-15T17:35:59.588Z,16.00
2019-05-15T17:38:30.015Z,15.80
2019-05-15T17:41:00.613Z,15.70
2019-05-15T17:43:30.822Z,15.60
2019-05-15T17:46:01.485Z,15.60
2019-05-15T17:48:32.041Z,15.70
2019-05-15T17:51:02.312Z,15.60
2019-05-15T17:53:32.521Z,15.60
2019-05-15T17:56:02.748Z,15.50
2019-05-15T17:58:33.429Z,15.40
2019-05-15T18:01:05.288Z,15.40
2019-05-15T18:03:35.555Z,15.40
2019-05-15T18:06:06.039Z,15.60
2019-05-15T18:08:36.228Z,15.50
2019-05-15T18:11:08.088Z,15.50
2019-05-15T18:13:38.506Z,15.10
2019-05-15T18:16:13.620Z,15.00
2019-05-15T18:18:40.615Z,14.80
2019-05-15T18:21:10.838Z,14.70
2019-05-15T18:23:41.543Z,14.60
2019-05-15T18:26:11.734Z,14.50
2019-05-15T18:28:42.307Z,14.50
2019-05-15T18:31:12.556Z,14.50
2019-05-15T18:33:53.472Z,14.50
2019-05-15T18:36:14.565Z,14.60
2019-05-15T18:38:44.898Z,14.50
2019-05-15T18:41:15.079Z,14.50
2019-05-15T18:43:45.302Z,14.30
2019-05-15T18:46:15.455Z,14.20
2019-05-15T18:48:46.003Z,14.10
2019-05-15T18:51:16.560Z,14.10
2019-05-15T18:53:48.199Z,14.00
2019-05-15T18:56:18.919Z,14.00
2019-05-15T18:58:49.087Z,13.90
2019-05-15T19:01:19.623Z,13.80
2019-05-15T19:03:49.875Z,13.70
2019-05-15T19:06:21.478Z,14.00
2019-05-15T19:08:53.239Z,13.90
2019-05-15T19:11:24.116Z,13.70
2019-05-15T19:13:54.308Z,13.60
2019-05-15T19:16:24.953Z,13.50
2019-05-15T19:18:55.594Z,13.50
2019-05-15T19:21:27.781Z,13.50
2019-05-15T19:23:58.434Z,13.40
2019-05-15T19:26:29.158Z,13.40
2019-05-15T19:28:59.457Z,13.30
2019-05-15T19:31:30.647Z,13.30
2019-05-15T19:34:01.336Z,13.20
2019-05-15T19:36:31.782Z,13.20
2019-05-15T19:39:02.032Z,13.30
2019-05-15T19:41:32.279Z,13.10
2019-05-15T19:44:02.535Z,13.00
2019-05-15T19:46:33.075Z,12.90
2019-05-15T19:49:08.586Z,12.90
2019-05-15T19:51:38.306Z,12.80
2019-05-15T19:54:09.163Z,12.80
2019-05-15T19:56:39.827Z,12.70
2019-05-15T19:59:10.792Z,12.70
2019-05-15T20:01:40.997Z,12.60
2019-05-15T20:04:11.513Z,12.60
2019-05-15T20:06:41.742Z,12.50
2019-05-15T20:09:11.980Z,12.50
2019-05-15T20:11:42.183Z,12.40
2019-05-15T20:14:18.716Z,12.40
2019-05-15T20:16:49.702Z,12.40
2019-05-15T20:19:20.142Z,12.30
2019-05-15T20:21:50.738Z,12.30
2019-05-15T20:24:21.015Z,12.20
2019-05-15T20:26:51.233Z,12.20
2019-05-15T20:29:21.524Z,12.10
2019-05-15T20:31:51.747Z,12.00
2019-05-15T20:34:22.062Z,12.00
2019-05-15T20:36:52.245Z,12.00
2019-05-15T20:39:22.893Z,12.00
2019-05-15T20:41:53.127Z,11.90
2019-05-15T20:44:23.347Z,11.90
2019-05-15T20:46:53.581Z,11.80
2019-05-15T20:49:23.754Z,11.90
2019-05-15T20:51:53.983Z,11.70
2019-05-15T20:54:24.251Z,11.70
2019-05-15T20:56:54.717Z,11.60
2019-05-15T20:59:24.964Z,11.60
2019-05-15T21:01:55.205Z,11.60
2019-05-15T21:04:25.515Z,11.50
2019-05-15T21:06:55.764Z,11.40
2019-05-15T21:09:28.471Z,11.30
2019-05-15T21:11:58.798Z,11.40
2019-05-15T21:14:29.014Z,11.30
2019-05-15T21:17:00.007Z,11.40
2019-05-15T21:19:30.226Z,11.20
2019-05-15T21:22:00.757Z,11.40
2019-05-15T21:24:31.061Z,11.30
2019-05-15T21:27:01.292Z,11.20
2019-05-15T21:29:31.594Z,11.40
2019-05-15T21:32:01.818Z,11.10
2019-05-15T21:34:37.468Z,11.10
2019-05-15T21:37:04.177Z,11.10
2019-05-15T21:39:34.893Z,11.00
2019-05-15T21:42:05.093Z,11.00
2019-05-15T21:44:38.170Z,11.40
2019-05-15T21:47:08.300Z,11.00
2019-05-15T21:49:38.870Z,11.10
2019-05-15T21:52:09.220Z,10.90
2019-05-15T21:54:39.505Z,11.00
2019-05-15T21:57:28.789Z,11.10
2019-05-15T21:59:42.295Z,11.00
2019-05-15T22:02:13.623Z,11.00
2019-05-15T22:04:52.790Z,11.10
2019-05-15T22:07:17.671Z,11.00
2019-05-15T22:09:48.721Z,11.00
2019-05-15T22:12:19.047Z,10.90
2019-05-15T22:14:49.563Z,10.90
2019-05-15T22:17:20.136Z,10.80
2019-05-15T22:19:50.775Z,10.80
2019-05-15T22:22:21.090Z,11.10
2019-05-15T22:24:51.437Z,10.90
2019-05-15T22:27:21.593Z,11.00
2019-05-15T22:29:52.211Z,10.80
2019-05-15T22:32:22.425Z,10.70
2019-05-15T22:35:06.204Z,10.60
2019-05-15T22:37:24.753Z,10.40
2019-05-15T22:39:55.063Z,10.60
2019-05-15T22:42:29.208Z,10.50
2019-05-15T22:44:57.663Z,10.80
2019-05-15T22:47:28.505Z,10.80
2019-05-15T22:49:59.087Z,10.40
2019-05-15T22:52:29.439Z,10.40
2019-05-15T22:54:59.965Z,10.70
2019-05-15T22:57:30.189Z,10.70
2019-05-15T23:00:00.447Z,10.60
2019-05-15T23:02:30.983Z,10.40
2019-05-15T23:05:01.308Z,10.40
2019-05-15T23:07:31.661Z,10.50
2019-05-15T23:10:01.850Z,10.50
2019-05-15T23:12:32.126Z,10.80
2019-05-15T23:15:02.621Z,10.40
2019-05-15T23:17:33.216Z,10.70
2019-05-15T23:20:03.450Z,10.50
2019-05-15T23:22:35.320Z,10.40
2019-05-15T23:25:07.535Z,10.40
2019-05-15T23:27:38.401Z,10.70
2019-05-15T23:30:09.390Z,10.70
2019-05-15T23:32:39.652Z,10.80
2019-05-15T23:35:09.993Z,10.50
2019-05-15T23:37:40.454Z,10.50
2019-05-15T23:40:11.125Z,10.60
2019-05-15T23:42:41.362Z,10.80
2019-05-15T23:45:13.175Z,10.70
2019-05-15T23:47:44.568Z,11.00
2019-05-15T23:50:15.606Z,10.90
2019-05-15T23:52:48.610Z,10.90
2019-05-15T23:55:19.128Z,11.00
2019-05-15T23:57:49.975Z,10.70
